首页
METAR-TAF:

METAR-TAF

机场 :

昆明长水国际机场

昆明, 中华人民共和国

纬度: 25-01N, 经度: 102-41E, 海拔: 1892米

当前天气观测

该预报发布于29分钟前的02:00 UTC
风速2节,风向多变
温度 20°C
湿度 68%
气压 1019 hPa
能见度10公里或以上
散云层高于2600英尺

METAR: ZPPP 190200Z VRB01MPS 9999 SCT026 20/14 Q1019 NOSIG

时间: 10:29 (02:29 UTC)

预报

该预报发布于7小时和21分钟前的19:08 UTC
预报有效从19日的 00点(UTC)到 19日的 24点(UTC)
风速8节,风向东转东北
能见度10公里或以上
散云层高于2600英尺
多云层高于3300英尺

TAF: ZPPP 181908Z 1900/1924 07004MPS 9999 SCT026 BKN033 TX24/1908Z TN14/1923Z

超过4000个机场的气象观测和天气预报(METAR&TAF报告)。

可查询的气象台以黄色和红色小点在地图上表示。

将鼠标移到小点上方,可查看气象台名称。

然后点击查看天气观测和预报。

如需切换地图:点击带黑十字的绿色按钮放大地图;点击带横线的绿色按钮缩小地图;或者点击绿色箭头查看邻近地区的地图。


METAR-TAF: